createdAt,value
2018-06-01T00:01:32.764Z,2.37
2018-06-01T00:04:00.260Z,2.20
2018-06-01T00:06:28.525Z,2.40
2018-06-01T00:08:56.815Z,2.43
2018-06-01T00:11:25.071Z,2.57
2018-06-01T00:13:52.553Z,2.47
2018-06-01T00:16:20.827Z,2.50
2018-06-01T00:18:48.336Z,2.57
2018-06-01T00:21:15.824Z,2.30
2018-06-01T00:23:43.331Z,2.60
2018-06-01T00:26:11.596Z,2.37
2018-06-01T00:28:39.084Z,2.43
2018-06-01T00:31:07.331Z,2.50
2018-06-01T00:33:35.045Z,2.53
2018-06-01T00:36:02.535Z,2.40
2018-06-01T00:38:30.050Z,2.50
2018-06-01T00:40:58.316Z,2.57
2018-06-01T00:43:25.792Z,2.50
2018-06-01T00:45:54.065Z,2.50
2018-06-01T00:48:22.370Z,2.60
2018-06-01T00:50:49.840Z,2.80
2018-06-01T00:53:17.333Z,2.60
2018-06-01T00:55:44.827Z,2.40
2018-06-01T00:58:13.111Z,2.33
2018-06-01T01:00:40.592Z,2.40
2018-06-01T01:03:08.853Z,2.60
2018-06-01T01:05:36.353Z,2.77
2018-06-01T01:08:03.844Z,2.33
2018-06-01T01:10:31.324Z,2.63
2018-06-01T01:12:58.829Z,2.80
2018-06-01T01:15:27.079Z,2.40
2018-06-01T01:17:54.575Z,2.33
2018-06-01T01:20:22.849Z,2.70
2018-06-01T01:22:51.094Z,2.57
2018-06-01T01:25:18.584Z,2.27
2018-06-01T01:27:46.842Z,2.70
2018-06-01T01:30:14.327Z,2.77
2018-06-01T01:32:42.574Z,2.60
2018-06-01T01:35:10.082Z,2.83
2018-06-01T01:37:38.339Z,2.70
2018-06-01T01:40:05.816Z,2.87
2018-06-01T01:42:34.085Z,2.93
2018-06-01T01:45:01.567Z,2.97
2018-06-01T01:47:29.823Z,3.40
2018-06-01T01:49:57.333Z,2.90
2018-06-01T01:52:24.826Z,3.40
2018-06-01T01:54:52.316Z,3.33
2018-06-01T01:57:19.816Z,3.07
2018-06-01T01:59:47.313Z,2.90
2018-06-01T02:02:14.800Z,3.00
2018-06-01T02:04:42.288Z,3.10
2018-06-01T02:07:09.796Z,3.30
2018-06-01T02:09:37.287Z,2.93
2018-06-01T02:12:04.774Z,3.00
2018-06-01T02:14:33.037Z,3.17
2018-06-01T02:17:01.295Z,3.20
2018-06-01T02:19:28.776Z,3.30
2018-06-01T02:21:56.268Z,2.70
2018-06-01T02:24:23.748Z,2.93
2018-06-01T02:26:51.236Z,2.57
2018-06-01T02:29:18.735Z,2.60
2018-06-01T02:31:46.985Z,2.90
2018-06-01T02:34:14.492Z,2.90
2018-06-01T02:36:42.735Z,2.90
2018-06-01T02:39:10.228Z,2.90
2018-06-01T02:41:38.489Z,3.20
2018-06-01T02:44:05.966Z,3.10
2018-06-01T02:46:34.242Z,3.80
2018-06-01T02:49:01.752Z,3.77
2018-06-01T02:51:29.238Z,3.57
2018-06-01T02:53:56.724Z,3.80
2018-06-01T02:56:24.252Z,3.40
2018-06-01T02:58:51.740Z,3.47
2018-06-01T03:01:19.220Z,3.73
2018-06-01T03:03:47.497Z,3.77
2018-06-01T03:06:14.995Z,3.50
2018-06-01T03:08:42.496Z,3.60
2018-06-01T03:11:09.985Z,2.87
2018-06-01T03:13:37.480Z,3.53
2018-06-01T03:16:04.976Z,3.30
2018-06-01T03:18:32.463Z,2.83
2018-06-01T03:20:59.948Z,3.40
2018-06-01T03:23:27.445Z,3.20
2018-06-01T03:25:54.929Z,3.03
2018-06-01T03:28:22.423Z,3.27
2018-06-01T03:30:49.929Z,3.30
2018-06-01T03:33:17.417Z,3.17
2018-06-01T03:35:44.912Z,2.90
2018-06-01T03:38:12.414Z,2.73
2018-06-01T03:40:39.922Z,3.10
2018-06-01T03:43:07.410Z,3.00
2018-06-01T03:45:34.917Z,3.23
2018-06-01T03:48:02.422Z,3.70
2018-06-01T03:50:29.927Z,3.20
2018-06-01T03:52:57.414Z,2.93
2018-06-01T03:55:24.928Z,3.50
2018-06-01T03:57:52.424Z,4.07
2018-06-01T04:00:19.915Z,4.23
2018-06-01T04:02:48.288Z,4.97
2018-06-01T04:05:15.776Z,5.13
2018-06-01T04:07:43.287Z,4.47
2018-06-01T04:10:10.775Z,5.17
2018-06-01T04:12:38.263Z,4.90
2018-06-01T04:15:05.761Z,4.73
2018-06-01T04:17:34.004Z,4.10
2018-06-01T04:20:01.508Z,4.07
2018-06-01T04:22:29.753Z,5.10
2018-06-01T04:24:57.248Z,4.37
2018-06-01T04:27:25.509Z,4.27
2018-06-01T04:29:52.994Z,4.50
2018-06-01T04:32:21.243Z,4.53
2018-06-01T04:34:48.755Z,4.83
2018-06-01T04:37:16.237Z,4.90
2018-06-01T04:39:43.719Z,5.20
2018-06-01T04:42:11.224Z,5.17
2018-06-01T04:44:38.701Z,5.60
2018-06-01T04:47:06.190Z,4.97
2018-06-01T04:49:33.681Z,4.60
2018-06-01T04:52:01.173Z,4.47
2018-06-01T04:54:29.422Z,3.80
2018-06-01T04:56:56.925Z,3.93
2018-06-01T04:59:24.421Z,3.30
2018-06-01T05:01:51.920Z,3.60
2018-06-01T05:04:19.410Z,4.00
2018-06-01T05:06:46.901Z,3.57
2018-06-01T05:09:14.397Z,3.80
2018-06-01T05:11:41.878Z,3.60
2018-06-01T05:14:09.369Z,3.40
2018-06-01T05:16:37.643Z,3.87
2018-06-01T05:19:05.889Z,3.33
2018-06-01T05:21:33.392Z,3.57
2018-06-01T05:24:00.884Z,4.63
2018-06-01T05:26:28.372Z,4.23
2018-06-01T05:28:55.865Z,4.70
2018-06-01T05:31:24.117Z,4.20
2018-06-01T05:33:51.593Z,4.07
2018-06-01T05:36:19.092Z,4.30
2018-06-01T05:38:46.598Z,4.50
2018-06-01T05:41:14.082Z,3.97
2018-06-01T05:43:41.581Z,3.90
2018-06-01T05:46:09.075Z,4.10
2018-06-01T05:48:36.575Z,3.30
2018-06-01T05:51:04.856Z,3.50
2018-06-01T05:53:32.345Z,3.23
2018-06-01T05:56:00.598Z,3.20
2018-06-01T05:58:28.100Z,3.23
2018-06-01T06:00:55.580Z,3.80
2018-06-01T06:03:23.078Z,3.70
2018-06-01T06:05:50.573Z,3.30
2018-06-01T06:08:18.815Z,3.53
2018-06-01T06:10:46.316Z,3.30
2018-06-01T06:13:14.634Z,3.70
2018-06-01T06:15:42.841Z,3.63
2018-06-01T06:18:10.344Z,2.93
2018-06-01T06:20:38.593Z,3.53
2018-06-01T06:23:06.071Z,3.70
2018-06-01T06:25:34.340Z,3.20
2018-06-01T06:28:01.837Z,2.97
2018-06-01T06:30:29.346Z,2.87
2018-06-01T06:32:56.857Z,3.20
2018-06-01T06:35:25.109Z,3.20
2018-06-01T06:37:52.604Z,3.50
2018-06-01T06:40:20.857Z,3.53
2018-06-01T06:42:48.368Z,3.20
2018-06-01T06:45:15.854Z,3.23
2018-06-01T06:47:43.341Z,3.43
2018-06-01T06:50:10.834Z,3.33
2018-06-01T06:52:38.321Z,2.87
2018-06-01T06:55:05.817Z,3.07
2018-06-01T06:57:33.328Z,3.17
2018-06-01T07:00:00.821Z,2.93
2018-06-01T07:02:28.323Z,3.37
2018-06-01T07:04:55.825Z,3.23
2018-06-01T07:07:23.323Z,3.20
2018-06-01T07:09:50.815Z,2.80
2018-06-01T07:12:18.299Z,3.20
2018-06-01T07:14:46.552Z,2.87
2018-06-01T07:17:14.046Z,3.27
2018-06-01T07:19:41.528Z,2.93
2018-06-01T07:22:09.026Z,3.00
2018-06-01T07:24:36.537Z,3.10
2018-06-01T07:27:04.047Z,2.60
2018-06-01T07:29:31.528Z,2.90
2018-06-01T07:31:59.018Z,2.87
2018-06-01T07:34:27.294Z,3.00
2018-06-01T07:36:55.564Z,2.90
2018-06-01T07:39:23.053Z,2.70
2018-06-01T07:41:50.560Z,2.57
2018-06-01T07:44:18.041Z,2.60
2018-06-01T07:46:45.536Z,2.50
2018-06-01T07:49:13.052Z,2.80
2018-06-01T07:51:40.541Z,2.90
2018-06-01T07:54:08.045Z,2.70
2018-06-01T07:56:35.549Z,2.80
2018-06-01T07:59:03.039Z,2.47
2018-06-01T08:01:31.295Z,2.90
2018-06-01T08:03:58.793Z,2.80
2018-06-01T08:06:27.054Z,2.80
2018-06-01T08:08:55.307Z,2.67
2018-06-01T08:11:22.817Z,2.40
2018-06-01T08:13:51.090Z,2.40
2018-06-01T08:16:19.352Z,2.20
2018-06-01T08:18:46.889Z,2.50
2018-06-01T08:21:14.368Z,2.70
2018-06-01T08:23:41.851Z,2.50
2018-06-01T08:26:10.108Z,2.70
2018-06-01T08:28:37.616Z,2.40
2018-06-01T08:31:05.872Z,2.53
2018-06-01T08:33:34.162Z,2.50
2018-06-01T08:36:02.435Z,2.53
2018-06-01T08:38:30.717Z,2.43
2018-06-01T08:40:58.991Z,2.27
2018-06-01T08:43:26.484Z,2.40
2018-06-01T08:45:54.004Z,2.50
2018-06-01T08:48:21.498Z,2.30
2018-06-01T08:50:49.749Z,2.37
2018-06-01T08:53:17.264Z,2.70
2018-06-01T08:55:44.763Z,2.50
2018-06-01T08:58:12.248Z,2.50
2018-06-01T09:00:39.750Z,2.40
2018-06-01T09:03:07.263Z,2.53
2018-06-01T09:05:34.750Z,2.60
2018-06-01T09:08:03.022Z,2.53
2018-06-01T09:10:30.525Z,2.47
2018-06-01T09:12:58.017Z,2.60
2018-06-01T09:15:25.520Z,2.30
2018-06-01T09:17:53.824Z,2.30
2018-06-01T09:20:21.304Z,2.00
2018-06-01T09:22:48.788Z,2.17
2018-06-01T09:25:16.335Z,1.80
2018-06-01T09:27:43.826Z,2.20
2018-06-01T09:30:11.305Z,1.93
2018-06-01T09:32:39.607Z,2.03
2018-06-01T09:35:07.863Z,2.00
2018-06-01T09:37:35.358Z,1.77
2018-06-01T09:40:02.867Z,1.60
2018-06-01T09:42:30.359Z,1.80
2018-06-01T09:44:57.851Z,1.77
2018-06-01T09:47:25.353Z,2.07
2018-06-01T09:49:53.606Z,2.10
2018-06-01T09:52:21.102Z,1.83
2018-06-01T09:54:48.619Z,1.80
2018-06-01T09:57:16.152Z,1.70
2018-06-01T09:59:43.645Z,2.00
2018-06-01T10:02:11.133Z,1.70
2018-06-01T10:04:38.620Z,2.03
2018-06-01T10:07:06.118Z,1.83
2018-06-01T10:09:34.377Z,1.80
2018-06-01T10:12:01.885Z,1.80
2018-06-01T10:14:29.377Z,2.07
2018-06-01T10:16:56.888Z,1.80
2018-06-01T10:19:25.179Z,1.83
2018-06-01T10:21:53.444Z,1.60
2018-06-01T10:24:21.695Z,2.20
2018-06-01T10:26:49.190Z,1.70
2018-06-01T10:29:17.476Z,2.13
2018-06-01T10:31:45.751Z,1.60
2018-06-01T10:34:14.018Z,1.57
2018-06-01T10:36:41.533Z,1.63
2018-06-01T10:39:09.025Z,1.87
2018-06-01T10:41:36.531Z,1.80
2018-06-01T10:44:04.821Z,1.80
2018-06-01T10:46:32.311Z,1.70
2018-06-01T10:48:59.803Z,1.90
2018-06-01T10:51:27.304Z,1.70
2018-06-01T10:53:55.583Z,2.00
2018-06-01T10:56:23.837Z,1.90
2018-06-01T10:58:51.354Z,1.80
2018-06-01T11:01:18.848Z,1.83
2018-06-01T11:03:46.337Z,1.70
2018-06-01T11:06:13.837Z,1.70
2018-06-01T11:08:41.345Z,1.70
2018-06-01T11:11:08.872Z,1.97
2018-06-01T11:13:36.379Z,2.03
2018-06-01T11:16:03.882Z,2.00
2018-06-01T11:18:31.386Z,1.90
2018-06-01T11:20:58.887Z,1.70
2018-06-01T11:23:27.156Z,2.00
2018-06-01T11:25:54.693Z,1.90
2018-06-01T11:28:22.203Z,1.83
2018-06-01T11:30:50.464Z,1.80
2018-06-01T11:33:17.986Z,1.90
2018-06-01T11:35:45.500Z,2.00
2018-06-01T11:38:13.002Z,2.00
2018-06-01T11:40:40.527Z,1.97
2018-06-01T11:43:08.782Z,2.00
2018-06-01T11:45:36.274Z,1.90
2018-06-01T11:48:04.540Z,2.30
2018-06-01T11:50:32.042Z,2.00
2018-06-01T11:52:59.553Z,2.50
2018-06-01T11:55:27.077Z,1.90
2018-06-01T11:57:54.589Z,1.90
2018-06-01T12:00:22.105Z,2.13
2018-06-01T12:02:49.609Z,1.93
2018-06-01T12:05:17.109Z,2.10
2018-06-01T12:07:44.611Z,2.17
2018-06-01T12:10:12.901Z,1.90
2018-06-01T12:12:40.415Z,1.97
2018-06-01T12:15:08.677Z,2.10
2018-06-01T12:17:36.197Z,1.77
2018-06-01T12:20:03.676Z,2.20
2018-06-01T12:22:31.191Z,1.80
2018-06-01T12:24:58.691Z,2.10
2018-06-01T12:27:26.169Z,2.00
2018-06-01T12:29:53.682Z,2.20
2018-06-01T12:32:21.196Z,2.10
2018-06-01T12:34:48.693Z,2.17
2018-06-01T12:37:16.954Z,2.40
2018-06-01T12:39:44.462Z,2.00
2018-06-01T12:42:11.958Z,1.90
2018-06-01T12:44:39.434Z,2.30
2018-06-01T12:47:06.936Z,2.20
2018-06-01T12:49:35.211Z,2.30
2018-06-01T12:52:03.473Z,2.47
2018-06-01T12:54:30.987Z,2.07
2018-06-01T12:56:58.505Z,2.20
2018-06-01T12:59:25.995Z,2.27
2018-06-01T13:01:53.498Z,2.20
2018-06-01T13:04:21.005Z,2.10
2018-06-01T13:06:48.528Z,2.40
2018-06-01T13:09:16.053Z,2.30
2018-06-01T13:11:43.558Z,2.10
2018-06-01T13:14:11.059Z,2.03
2018-06-01T13:16:38.548Z,2.40
2018-06-01T13:19:06.046Z,2.13
2018-06-01T13:21:33.535Z,2.10
2018-06-01T13:24:01.038Z,2.30
2018-06-01T13:26:28.539Z,2.27
2018-06-01T13:28:56.029Z,2.07
2018-06-01T13:31:24.287Z,2.13
2018-06-01T13:33:51.797Z,2.27
2018-06-01T13:36:19.297Z,2.13
2018-06-01T13:38:46.793Z,2.53
2018-06-01T13:41:15.080Z,2.37
2018-06-01T13:43:42.603Z,2.40
2018-06-01T13:46:10.099Z,2.37
2018-06-01T13:48:37.600Z,2.20
2018-06-01T13:51:05.084Z,2.33
2018-06-01T13:53:32.579Z,2.70
2018-06-01T13:56:00.071Z,2.40
2018-06-01T13:58:28.329Z,2.53
2018-06-01T14:00:55.824Z,2.53
2018-06-01T14:03:23.332Z,2.53
2018-06-01T14:05:50.842Z,2.70
2018-06-01T14:08:18.336Z,2.43
2018-06-01T14:10:45.866Z,2.40
2018-06-01T14:13:13.352Z,2.30
2018-06-01T14:15:40.847Z,2.40
2018-06-01T14:18:08.356Z,2.57
2018-06-01T14:20:35.850Z,2.47
2018-06-01T14:23:03.333Z,3.10
2018-06-01T14:25:30.871Z,2.47
2018-06-01T14:27:58.370Z,3.17
2018-06-01T14:30:25.863Z,2.57
2018-06-01T14:32:54.126Z,2.67
2018-06-01T14:35:21.612Z,2.50
2018-06-01T14:37:49.864Z,2.80
2018-06-01T14:40:17.372Z,2.73
2018-06-01T14:42:44.871Z,2.47
2018-06-01T14:45:12.363Z,2.63
2018-06-01T14:47:39.873Z,2.73
2018-06-01T14:50:07.366Z,2.47
2018-06-01T14:52:34.859Z,2.60
2018-06-01T14:55:03.126Z,2.40
2018-06-01T14:57:30.629Z,2.87
2018-06-01T14:59:58.106Z,2.87
2018-06-01T15:02:25.632Z,2.53
2018-06-01T15:04:53.897Z,2.40
2018-06-01T15:07:21.392Z,2.57
2018-06-01T15:09:48.905Z,2.80
2018-06-01T15:12:16.395Z,2.57
2018-06-01T15:14:43.910Z,2.67
2018-06-01T15:17:11.390Z,2.47
2018-06-01T15:19:38.896Z,2.77
2018-06-01T15:22:07.173Z,2.33
2018-06-01T15:24:35.448Z,2.67
2018-06-01T15:27:03.699Z,2.40
2018-06-01T15:29:31.215Z,2.77
2018-06-01T15:31:58.703Z,2.80
2018-06-01T15:34:26.192Z,2.67
2018-06-01T15:36:53.679Z,2.60
2018-06-01T15:39:21.186Z,2.60
2018-06-01T15:41:48.705Z,2.60
2018-06-01T15:44:16.191Z,2.50
2018-06-01T15:46:43.699Z,2.70
2018-06-01T15:49:11.222Z,2.67
2018-06-01T15:51:38.728Z,2.63
2018-06-01T15:54:06.229Z,2.50
2018-06-01T15:56:34.509Z,2.80
2018-06-01T15:59:02.756Z,2.83
2018-06-01T16:01:30.257Z,2.80
2018-06-01T16:03:58.524Z,2.60
2018-06-01T16:06:26.787Z,2.37
2018-06-01T16:08:54.280Z,3.10
2018-06-01T16:11:22.542Z,2.60
2018-06-01T16:13:50.027Z,2.60
2018-06-01T16:16:17.530Z,2.53
2018-06-01T16:18:45.015Z,2.47
2018-06-01T16:21:12.502Z,2.50
2018-06-01T16:23:40.009Z,2.77
2018-06-01T16:26:07.501Z,2.70
2018-06-01T16:28:34.989Z,2.60
2018-06-01T16:31:02.474Z,2.70
2018-06-01T16:33:30.724Z,2.77
2018-06-01T16:35:58.236Z,3.13
2018-06-01T16:38:25.739Z,2.60
2018-06-01T16:40:53.224Z,2.77
2018-06-01T16:43:21.481Z,3.00
2018-06-01T16:45:49.002Z,2.63
2018-06-01T16:48:16.488Z,3.00
2018-06-01T16:50:43.983Z,2.67
2018-06-01T16:53:11.475Z,3.37
2018-06-01T16:55:38.972Z,2.67
2018-06-01T16:58:06.447Z,2.70
2018-06-01T17:00:33.940Z,2.70
2018-06-01T17:03:01.428Z,3.03
2018-06-01T17:05:28.912Z,2.57
2018-06-01T17:07:56.422Z,2.67
2018-06-01T17:10:23.905Z,2.70
2018-06-01T17:12:52.170Z,3.10
2018-06-01T17:15:19.670Z,2.90
2018-06-01T17:17:47.172Z,2.83
2018-06-01T17:20:14.673Z,2.73
2018-06-01T17:22:43.019Z,3.00
2018-06-01T17:25:10.477Z,2.53
2018-06-01T17:27:37.966Z,2.80
2018-06-01T17:30:05.475Z,2.80
2018-06-01T17:32:32.974Z,2.90
2018-06-01T17:35:00.471Z,3.10
2018-06-01T17:37:28.744Z,2.77
2018-06-01T17:39:56.226Z,2.83
2018-06-01T17:42:23.736Z,3.03
2018-06-01T17:44:51.225Z,2.70
2018-06-01T17:47:18.740Z,2.90
2018-06-01T17:49:46.260Z,2.90
2018-06-01T17:52:14.532Z,2.97
2018-06-01T17:54:42.016Z,2.70
2018-06-01T17:57:10.304Z,3.00
2018-06-01T17:59:38.553Z,3.10
2018-06-01T18:02:06.052Z,3.33
2018-06-01T18:04:33.556Z,2.80
2018-06-01T18:07:01.048Z,3.30
2018-06-01T18:09:28.539Z,2.90
2018-06-01T18:11:56.824Z,3.20
2018-06-01T18:14:24.305Z,3.50
2018-06-01T18:16:51.983Z,3.30
2018-06-01T18:19:19.762Z,3.13
2018-06-01T18:21:47.383Z,3.13
2018-06-01T18:24:15.125Z,3.37
2018-06-01T18:26:42.751Z,3.30
2018-06-01T18:29:10.252Z,3.27
2018-06-01T18:31:38.533Z,3.10
2018-06-01T18:34:06.016Z,3.10
2018-06-01T18:36:34.294Z,3.13
2018-06-01T18:39:02.654Z,3.03
2018-06-01T18:41:30.292Z,3.43
2018-06-01T18:43:57.782Z,3.40
2018-06-01T18:46:25.272Z,3.47
2018-06-01T18:48:53.542Z,3.40
2018-06-01T18:51:21.020Z,3.50
2018-06-01T18:53:49.278Z,3.50
2018-06-01T18:56:16.804Z,3.60
2018-06-01T18:58:44.292Z,3.30
2018-06-01T19:01:11.776Z,3.87
2018-06-01T19:03:40.044Z,3.50
2018-06-01T19:06:07.540Z,3.83
2018-06-01T19:08:35.030Z,4.20
2018-06-01T19:11:02.664Z,3.73
2018-06-01T19:13:30.914Z,3.73
2018-06-01T19:15:58.408Z,3.80
2018-06-01T19:18:26.673Z,3.83
2018-06-01T19:20:54.927Z,3.77
2018-06-01T19:23:22.413Z,3.97
2018-06-01T19:25:49.904Z,3.67
2018-06-01T19:28:17.388Z,3.70
2018-06-01T19:30:44.884Z,3.47
2018-06-01T19:33:12.394Z,3.83
2018-06-01T19:35:39.889Z,3.30
2018-06-01T19:38:07.377Z,3.63
2018-06-01T19:40:34.874Z,3.17
2018-06-01T19:43:02.393Z,3.30
2018-06-01T19:45:29.886Z,3.30
2018-06-01T19:47:58.140Z,3.30
2018-06-01T19:50:25.628Z,3.37
2018-06-01T19:52:53.876Z,3.53
2018-06-01T19:55:21.354Z,3.20
2018-06-01T19:57:48.847Z,4.23
2018-06-01T20:00:17.091Z,4.20
2018-06-01T20:02:44.598Z,3.40
2018-06-01T20:05:12.131Z,3.77
2018-06-01T20:07:39.613Z,3.70
2018-06-01T20:10:07.113Z,3.70
2018-06-01T20:12:34.674Z,3.90
2018-06-01T20:15:02.163Z,3.60
2018-06-01T20:17:29.651Z,3.50
2018-06-01T20:19:57.155Z,3.87
2018-06-01T20:22:24.638Z,3.33
2018-06-01T20:24:52.161Z,3.47
2018-06-01T20:27:19.645Z,3.60
2018-06-01T20:29:47.139Z,3.73
2018-06-01T20:32:14.650Z,3.57
2018-06-01T20:34:42.921Z,3.60
2018-06-01T20:37:11.173Z,3.90
2018-06-01T20:39:38.674Z,3.60
2018-06-01T20:42:06.942Z,3.63
2018-06-01T20:44:35.244Z,3.47
2018-06-01T20:47:02.726Z,3.30
2018-06-01T20:49:30.208Z,3.67
2018-06-01T20:51:57.704Z,3.37
2018-06-01T20:54:25.180Z,4.20
2018-06-01T20:56:53.437Z,3.70
2018-06-01T20:59:20.943Z,4.10
2018-06-01T21:01:48.425Z,3.77
2018-06-01T21:04:15.924Z,4.03
2018-06-01T21:06:43.416Z,3.97
2018-06-01T21:09:11.671Z,3.93
2018-06-01T21:11:39.938Z,4.27
2018-06-01T21:14:07.430Z,3.70
2018-06-01T21:16:35.690Z,4.00
2018-06-01T21:19:03.224Z,4.37
2018-06-01T21:21:30.713Z,4.43
2018-06-01T21:23:58.213Z,4.40
2018-06-01T21:26:26.482Z,4.33
2018-06-01T21:28:54.735Z,4.57
2018-06-01T21:31:22.216Z,4.73
2018-06-01T21:33:50.475Z,4.80
2018-06-01T21:36:17.956Z,4.97
2018-06-01T21:38:45.450Z,5.33
2018-06-01T21:41:12.940Z,5.27
2018-06-01T21:43:40.437Z,5.80
2018-06-01T21:46:07.957Z,5.47
2018-06-01T21:48:35.443Z,5.50
2018-06-01T21:51:02.929Z,5.50
2018-06-01T21:53:30.432Z,5.20
2018-06-01T21:55:57.916Z,5.40
2018-06-01T21:58:25.400Z,5.83
2018-06-01T22:00:52.909Z,5.07
2018-06-01T22:03:20.408Z,5.70
2018-06-01T22:05:47.888Z,5.20
2018-06-01T22:08:15.412Z,5.50
2018-06-01T22:10:42.920Z,5.30
2018-06-01T22:13:10.396Z,6.03
2018-06-01T22:15:37.906Z,5.53
2018-06-01T22:18:05.407Z,5.37
2018-06-01T22:20:32.904Z,5.90
2018-06-01T22:23:01.168Z,4.97
2018-06-01T22:25:28.663Z,5.43
2018-06-01T22:27:56.145Z,5.60
2018-06-01T22:30:23.627Z,6.57
2018-06-01T22:32:51.114Z,5.50
2018-06-01T22:35:18.597Z,5.70
2018-06-01T22:37:46.848Z,6.20
2018-06-01T22:40:14.353Z,5.30
2018-06-01T22:42:42.611Z,5.40
2018-06-01T22:45:10.101Z,4.90
2018-06-01T22:47:37.596Z,5.70
2018-06-01T22:50:05.872Z,5.97
2018-06-01T22:52:33.366Z,5.43
2018-06-01T22:55:00.859Z,5.57
2018-06-01T22:57:29.127Z,5.70
2018-06-01T22:59:56.617Z,6.20
2018-06-01T23:02:24.126Z,5.70
2018-06-01T23:04:51.611Z,5.60
2018-06-01T23:07:19.098Z,5.77
2018-06-01T23:09:46.612Z,5.97
2018-06-01T23:12:14.107Z,5.37
2018-06-01T23:14:41.589Z,5.37
2018-06-01T23:17:09.853Z,4.87
2018-06-01T23:19:38.110Z,4.67
2018-06-01T23:22:05.615Z,5.20
2018-06-01T23:24:33.112Z,5.10
2018-06-01T23:27:00.596Z,5.40
2018-06-01T23:29:28.087Z,5.67
2018-06-01T23:31:56.352Z,4.90
2018-06-01T23:34:23.836Z,5.30
2018-06-01T23:36:52.084Z,5.37
2018-06-01T23:39:19.585Z,5.43
2018-06-01T23:41:47.073Z,5.73
2018-06-01T23:44:14.569Z,5.90
2018-06-01T23:46:42.067Z,5.57
2018-06-01T23:49:10.311Z,5.50
2018-06-01T23:51:37.790Z,5.03
2018-06-01T23:54:05.308Z,5.13
2018-06-01T23:56:32.807Z,5.07
2018-06-01T23:59:00.291Z,4.70
